CAL520 ZLLL-ZULS
Flight info
| Callsign | CAL520 |
|---|---|
| Flight time | N/A |
| Altitude | 34000 |
| Route | XNN IGELA TAPUN W500 DM DM01A |
| Aircraft | B738/M-V/N |
Departure
| Time | N/A |
|---|---|
| Airport | Lanzhou Zhongchuan International Airport (ZLLL) |
Arrival
| Time | 2026-05-01 07:41 |
|---|---|
| Airport | Lhasa Gonggar International Airport (ZULS) |
| Time | Latitude | Longitude | Altitude | Speed | Heading |
|---|---|---|---|---|---|
| 2026-05-01 07:24 | 29.23309 | 90.96896 | 20640 ft | 333 kts | 89° |
| 2026-05-01 07:25 | 29.23512 | 90.99530 | 20663 ft | 332 kts | 89° |
| 2026-05-01 07:25 | 29.23715 | 91.02158 | 20684 ft | 330 kts | 89° |
| 2026-05-01 07:25 | 29.23916 | 91.04760 | 20706 ft | 328 kts | 89° |
| 2026-05-01 07:25 | 29.24116 | 91.07361 | 20728 ft | 326 kts | 89° |
| 2026-05-01 07:26 | 29.24315 | 91.09943 | 20742 ft | 325 kts | 89° |
| 2026-05-01 07:26 | 29.24515 | 91.12532 | 20745 ft | 323 kts | 89° |
| 2026-05-01 07:26 | 29.24710 | 91.15061 | 20745 ft | 321 kts | 90° |
| 2026-05-01 07:26 | 29.24905 | 91.17590 | 20745 ft | 318 kts | 90° |
| 2026-05-01 07:27 | 29.25099 | 91.20106 | 20745 ft | 316 kts | 90° |
| 2026-05-01 07:27 | 29.25299 | 91.22604 | 20745 ft | 316 kts | 89° |
| 2026-05-01 07:27 | 29.25516 | 91.25129 | 20746 ft | 316 kts | 89° |
| 2026-05-01 07:27 | 29.25750 | 91.27618 | 20745 ft | 317 kts | 88° |
| 2026-05-01 07:28 | 29.26008 | 91.30123 | 20719 ft | 319 kts | 88° |
| 2026-05-01 07:28 | 29.26288 | 91.32655 | 20710 ft | 318 kts | 87° |
| 2026-05-01 07:28 | 29.26579 | 91.35144 | 20801 ft | 316 kts | 87° |
| 2026-05-01 07:28 | 29.26881 | 91.37682 | 20744 ft | 324 kts | 86° |
| 2026-05-01 07:29 | 29.27184 | 91.40211 | 20805 ft | 322 kts | 86° |
| 2026-05-01 07:29 | 29.27483 | 91.42753 | 20815 ft | 319 kts | 87° |
| 2026-05-01 07:29 | 29.27771 | 91.45293 | 20818 ft | 318 kts | 87° |
| 2026-05-01 07:29 | 29.28043 | 91.47805 | 20820 ft | 318 kts | 86° |
| 2026-05-01 07:30 | 29.28669 | 91.50225 | 20824 ft | 318 kts | 67° |
| 2026-05-01 07:30 | 29.29915 | 91.52274 | 20826 ft | 312 kts | 47° |
| 2026-05-01 07:30 | 29.31646 | 91.53727 | 20825 ft | 304 kts | 27° |
| 2026-05-01 07:30 | 29.33623 | 91.54417 | 20824 ft | 295 kts | 5° |
| 2026-05-01 07:31 | 29.35627 | 91.54304 | 20887 ft | 292 kts | 343° |
| 2026-05-01 07:31 | 29.39895 | 91.49849 | 20668 ft | 284 kts | 282° |
| 2026-05-01 07:32 | 29.40333 | 91.45451 | 19886 ft | 272 kts | 266° |
| 2026-05-01 07:32 | 29.40373 | 91.43305 | 19503 ft | 268 kts | 265° |
| 2026-05-01 07:33 | 29.40248 | 91.39140 | 18733 ft | 262 kts | 246° |
| 2026-05-01 07:33 | 29.39224 | 91.37572 | 18715 ft | 235 kts | 208° |
| 2026-05-01 07:33 | 29.36106 | 91.37269 | 18631 ft | 234 kts | 170° |
| 2026-05-01 07:34 | 29.34475 | 91.37610 | 18619 ft | 237 kts | 169° |
| 2026-05-01 07:34 | 29.31521 | 91.36330 | 18630 ft | 248 kts | 227° |
| 2026-05-01 07:34 | 29.30832 | 91.34519 | 18638 ft | 258 kts | 256° |
| 2026-05-01 07:35 | 29.30718 | 91.32461 | 18501 ft | 267 kts | 265° |
| 2026-05-01 07:35 | 29.30753 | 91.30307 | 18034 ft | 265 kts | 267° |
| 2026-05-01 07:35 | 29.30782 | 91.28249 | 17671 ft | 254 kts | 266° |
| 2026-05-01 07:35 | 29.30786 | 91.26300 | 17343 ft | 243 kts | 265° |
| 2026-05-01 07:36 | 29.30771 | 91.24400 | 17029 ft | 230 kts | 265° |
| 2026-05-01 07:36 | 29.30744 | 91.22625 | 16719 ft | 215 kts | 264° |
| 2026-05-01 07:36 | 29.30710 | 91.20995 | 16455 ft | 200 kts | 264° |
| 2026-05-01 07:36 | 29.30670 | 91.19432 | 16182 ft | 192 kts | 263° |
| 2026-05-01 07:37 | 29.30576 | 91.16414 | 15731 ft | 196 kts | 264° |
| 2026-05-01 07:37 | 29.30527 | 91.14903 | 15465 ft | 194 kts | 264° |
| 2026-05-01 07:37 | 29.30484 | 91.13570 | 15232 ft | 191 kts | 264° |
| 2026-05-01 07:39 | 29.30252 | 91.06370 | 14031 ft | 183 kts | 265° |
| 2026-05-01 07:39 | 29.30205 | 91.04909 | 13797 ft | 183 kts | 265° |
| 2026-05-01 07:39 | 29.30112 | 91.02000 | 13307 ft | 182 kts | 265° |
| 2026-05-01 07:40 | 29.30067 | 91.00557 | 13065 ft | 181 kts | 265° |
| 2026-05-01 07:40 | 29.30023 | 90.99125 | 12827 ft | 180 kts | 266° |
| 2026-05-01 07:40 | 29.29980 | 90.97694 | 12589 ft | 179 kts | 266° |
| 2026-05-01 07:40 | 29.29927 | 90.96280 | 12353 ft | 178 kts | 265° |
| 2026-05-01 07:41 | 29.29869 | 90.94862 | 12078 ft | 179 kts | 266° |
| 2026-05-01 07:41 | 29.29837 | 90.93429 | 11793 ft | 178 kts | 268° |
| 2026-05-01 07:41 | 29.29809 | 90.91319 | 11722 ft | 29 kts | 268° |
| 2026-05-01 07:42 | 29.29809 | 90.91282 | 11722 ft | 0 kts | 269° |